createdAt,value
2017-07-23T00:00:28.613Z,101183.75
2017-07-23T00:02:56.546Z,101182.41
2017-07-23T00:05:25.319Z,101177.92
2017-07-23T00:07:53.254Z,101168.05
2017-07-23T00:10:21.178Z,101162.23
2017-07-23T00:12:49.143Z,101155.98
2017-07-23T00:15:17.077Z,101157.33
2017-07-23T00:17:45.000Z,101150.16
2017-07-23T00:20:12.944Z,101144.76
2017-07-23T00:22:40.871Z,101130.41
2017-07-23T00:25:08.826Z,101147.45
2017-07-23T00:27:36.757Z,101146.11
2017-07-23T00:30:04.701Z,101143.47
2017-07-23T00:32:32.643Z,101147.52
2017-07-23T00:35:00.567Z,101153.40
2017-07-23T00:37:28.523Z,101148.49
2017-07-23T00:39:56.446Z,101145.42
2017-07-23T00:42:24.374Z,101154.43
2017-07-23T00:44:52.534Z,101159.39
2017-07-23T00:47:20.473Z,101165.22
2017-07-23T00:49:48.431Z,101171.16
2017-07-23T00:52:16.371Z,101188.69
2017-07-23T00:54:44.294Z,101189.61
2017-07-23T00:57:12.227Z,101192.42
2017-07-23T00:59:40.430Z,101194.20
2017-07-23T01:02:08.383Z,101183.03
2017-07-23T01:04:36.311Z,101168.69
2017-07-23T01:07:04.252Z,101154.34
2017-07-23T01:09:32.172Z,101166.97
2017-07-23T01:12:00.089Z,101160.28
2017-07-23T01:14:28.028Z,101157.64
2017-07-23T01:16:55.959Z,101159.00
2017-07-23T01:19:23.881Z,101159.05
2017-07-23T01:21:51.833Z,101158.63
2017-07-23T01:24:19.772Z,101160.86
2017-07-23T01:26:47.718Z,101161.77
2017-07-23T01:29:15.667Z,101173.05
2017-07-23T01:31:43.597Z,101181.63
2017-07-23T01:34:11.529Z,101181.63
2017-07-23T01:36:39.455Z,101194.62
2017-07-23T01:39:07.678Z,101191.49
2017-07-23T01:41:35.608Z,101190.63
2017-07-23T01:44:03.551Z,101184.32
2017-07-23T01:46:31.500Z,101196.89
2017-07-23T01:48:59.437Z,101192.41
2017-07-23T01:51:27.395Z,101187.50
2017-07-23T01:53:55.322Z,101195.16
2017-07-23T01:56:23.273Z,101196.03
2017-07-23T01:58:51.228Z,101183.03
2017-07-23T02:01:19.273Z,101185.30
2017-07-23T02:03:47.709Z,101188.48
2017-07-23T02:06:15.701Z,101193.02
2017-07-23T02:08:43.631Z,101186.27
2017-07-23T02:11:11.559Z,101192.52
2017-07-23T02:13:39.494Z,101192.58
2017-07-23T02:16:07.423Z,101196.20
2017-07-23T02:18:35.345Z,101196.63
2017-07-23T02:21:03.283Z,101194.91
2017-07-23T02:23:31.213Z,101197.17
2017-07-23T02:25:59.146Z,101197.66
2017-07-23T02:28:27.062Z,101202.19
2017-07-23T02:30:54.995Z,101201.27
2017-07-23T02:33:22.925Z,101206.72
2017-07-23T02:35:50.875Z,101207.16
2017-07-23T02:38:18.864Z,101208.18
2017-07-23T02:40:46.788Z,101212.66
2017-07-23T02:43:14.710Z,101215.41
2017-07-23T02:45:42.639Z,101212.28
2017-07-23T02:48:10.553Z,101220.48
2017-07-23T02:50:38.505Z,101224.53
2017-07-23T02:53:06.435Z,101220.11
2017-07-23T02:55:34.362Z,101217.84
2017-07-23T02:58:02.286Z,101220.66
2017-07-23T03:00:30.211Z,101225.12
2017-07-23T03:02:58.151Z,101222.06
2017-07-23T03:05:26.091Z,101226.59
2017-07-23T03:07:54.111Z,101221.69
2017-07-23T03:10:22.038Z,101223.09
2017-07-23T03:12:49.965Z,101221.80
2017-07-23T03:15:17.916Z,101225.41
2017-07-23T03:17:45.841Z,101219.16
2017-07-23T03:20:13.767Z,101226.38
2017-07-23T03:22:41.674Z,101223.80
2017-07-23T03:25:09.612Z,101218.41
2017-07-23T03:27:37.570Z,101226.98
2017-07-23T03:30:05.492Z,101226.13
2017-07-23T03:32:33.423Z,101228.39
2017-07-23T03:35:01.346Z,101235.18
2017-07-23T03:37:29.266Z,101227.55
2017-07-23T03:39:57.222Z,101234.27
2017-07-23T03:42:25.142Z,101232.08
2017-07-23T03:44:53.803Z,101229.81
2017-07-23T03:47:21.743Z,101234.77
2017-07-23T03:49:49.659Z,101231.16
2017-07-23T03:52:17.619Z,101230.30
2017-07-23T03:54:45.546Z,101228.95
2017-07-23T03:57:13.470Z,101232.56
2017-07-23T03:59:41.409Z,101232.63
2017-07-23T04:02:09.339Z,101229.87
2017-07-23T04:04:37.282Z,101233.05
2017-07-23T04:07:05.211Z,101232.67
2017-07-23T04:09:33.166Z,101232.67
2017-07-23T04:12:01.107Z,101229.98
2017-07-23T04:14:29.021Z,101237.20
2017-07-23T04:16:56.967Z,101236.78
2017-07-23T04:19:24.884Z,101234.56
2017-07-23T04:21:52.818Z,101231.02
2017-07-23T04:24:20.746Z,101233.33
2017-07-23T04:26:48.700Z,101238.23
2017-07-23T04:29:16.645Z,101239.64
2017-07-23T04:31:44.582Z,101236.52
2017-07-23T04:34:12.540Z,101238.78
2017-07-23T04:36:40.474Z,101242.82
2017-07-23T04:39:08.417Z,101244.66
2017-07-23T04:41:36.357Z,101245.14
2017-07-23T04:44:04.284Z,101248.75
2017-07-23T04:46:32.207Z,101248.29
2017-07-23T04:49:00.137Z,101254.66
2017-07-23T04:51:28.070Z,101256.54
2017-07-23T04:53:56.019Z,101254.70
2017-07-23T04:56:23.946Z,101255.19
2017-07-23T04:58:51.877Z,101261.98
2017-07-23T05:01:19.803Z,101264.73
2017-07-23T05:03:47.741Z,101266.52
2017-07-23T05:06:15.686Z,101261.98
2017-07-23T05:08:43.619Z,101263.45
2017-07-23T05:11:11.558Z,101258.59
2017-07-23T05:13:39.501Z,101258.11
2017-07-23T05:16:07.437Z,101255.41
2017-07-23T05:18:35.382Z,101252.77
2017-07-23T05:21:03.305Z,101259.45
2017-07-23T05:23:31.219Z,101261.83
2017-07-23T05:25:59.174Z,101259.14
2017-07-23T05:28:27.093Z,101261.03
2017-07-23T05:30:55.005Z,101261.45
2017-07-23T05:33:22.928Z,101264.16
2017-07-23T05:35:50.862Z,101263.72
2017-07-23T05:38:18.812Z,101259.73
2017-07-23T05:40:46.745Z,101263.34
2017-07-23T05:43:14.685Z,101259.73
2017-07-23T05:45:42.615Z,101266.47
2017-07-23T05:48:10.539Z,101268.68
2017-07-23T05:50:38.488Z,101268.68
2017-07-23T05:53:06.414Z,101265.07
2017-07-23T05:55:34.346Z,101261.52
2017-07-23T05:58:02.273Z,101258.39
2017-07-23T06:00:30.219Z,101259.30
2017-07-23T06:02:58.175Z,101260.59
2017-07-23T06:05:26.099Z,101256.98
2017-07-23T06:07:54.046Z,101260.11
2017-07-23T06:10:21.981Z,101259.68
2017-07-23T06:12:49.907Z,101265.45
2017-07-23T06:15:17.845Z,101262.31
2017-07-23T06:17:45.798Z,101258.53
2017-07-23T06:20:13.734Z,101265.70
2017-07-23T06:22:41.670Z,101266.34
2017-07-23T06:25:09.606Z,101263.55
2017-07-23T06:27:38.342Z,101259.94
2017-07-23T06:41:06.700Z,101262.55
2017-07-23T06:43:33.902Z,101259.25
2017-07-23T06:46:00.388Z,101266.15
2017-07-23T06:48:26.550Z,101262.30
2017-07-23T06:50:52.722Z,101263.48
2017-07-23T06:53:18.891Z,101270.39
2017-07-23T06:55:45.812Z,101266.13
2017-07-23T06:58:11.991Z,101272.22
2017-07-23T07:00:38.193Z,101262.73
2017-07-23T07:03:04.366Z,101263.05
2017-07-23T07:05:30.539Z,101262.19
2017-07-23T07:07:56.709Z,101267.31
2017-07-23T07:10:23.652Z,101262.56
2017-07-23T07:12:50.224Z,101255.78
2017-07-23T07:15:16.410Z,101266.18
2017-07-23T07:17:42.588Z,101256.00
2017-07-23T07:20:08.760Z,101260.73
2017-07-23T07:22:34.930Z,101259.12
2017-07-23T07:25:01.836Z,101265.86
2017-07-23T07:27:28.011Z,101262.36
2017-07-23T07:29:55.035Z,101265.08
2017-07-23T07:32:21.212Z,101265.87
2017-07-23T07:34:47.392Z,101263.52
2017-07-23T07:37:13.584Z,101255.17
2017-07-23T07:39:39.759Z,101255.44
2017-07-23T07:42:06.002Z,101252.05
2017-07-23T07:44:32.200Z,101256.63
2017-07-23T07:46:58.382Z,101263.68
2017-07-23T07:49:24.550Z,101264.14
2017-07-23T07:51:50.713Z,101263.41
2017-07-23T07:54:16.904Z,101261.91
2017-07-23T07:56:43.823Z,101258.78
2017-07-23T07:59:10.013Z,101258.78
2017-07-23T08:01:36.193Z,101269.72
2017-07-23T08:04:03.139Z,101261.80
2017-07-23T08:06:29.964Z,101264.22
2017-07-23T08:08:57.056Z,101263.25
2017-07-23T08:11:23.478Z,101260.98
2017-07-23T08:13:49.824Z,101262.28
2017-07-23T08:16:15.994Z,101259.91
2017-07-23T08:18:42.523Z,101265.94
2017-07-23T08:21:08.694Z,101271.01
2017-07-23T08:23:34.866Z,101268.08
2017-07-23T08:26:01.778Z,101264.35
2017-07-23T08:28:27.946Z,101266.89
2017-07-23T08:30:54.131Z,101269.31
2017-07-23T08:33:20.292Z,101268.66
2017-07-23T08:35:46.452Z,101271.57
2017-07-23T08:38:12.615Z,101270.75
2017-07-23T08:40:38.792Z,101269.09
2017-07-23T08:43:04.974Z,101264.67
2017-07-23T08:45:31.161Z,101272.27
2017-07-23T08:47:57.327Z,101272.97
2017-07-23T08:50:24.252Z,101274.27
2017-07-23T08:52:50.452Z,101275.25
2017-07-23T08:55:16.655Z,101263.28
2017-07-23T08:57:42.820Z,101274.98
2017-07-23T09:00:08.987Z,101268.43
2017-07-23T09:02:35.212Z,101263.82
2017-07-23T09:05:01.407Z,101256.22
2017-07-23T09:07:27.594Z,101258.70
2017-07-23T09:09:54.512Z,101268.97
2017-07-23T09:12:20.675Z,101259.30
2017-07-23T09:14:47.594Z,101260.88
2017-07-23T09:17:13.775Z,101264.44
2017-07-23T09:19:39.982Z,101269.40
2017-07-23T09:22:06.155Z,101264.25
2017-07-23T09:24:32.326Z,101277.09
2017-07-23T09:26:58.513Z,101281.67
2017-07-23T09:29:24.688Z,101280.05
2017-07-23T09:31:50.900Z,101283.02
2017-07-23T09:34:17.069Z,101282.86
2017-07-23T09:36:43.239Z,101286.06
2017-07-23T09:39:09.409Z,101288.63
2017-07-23T09:41:35.588Z,101291.75
2017-07-23T09:44:02.518Z,101288.62
2017-07-23T09:46:28.695Z,101289.38
2017-07-23T09:48:54.858Z,101288.51
2017-07-23T09:51:21.037Z,101282.20
2017-07-23T09:53:47.976Z,101284.03
2017-07-23T09:56:14.179Z,101290.50
2017-07-23T09:58:40.360Z,101286.25
2017-07-23T10:01:07.575Z,101281.19
2017-07-23T10:03:33.764Z,101284.91
2017-07-23T10:05:59.963Z,101282.96
2017-07-23T10:08:26.164Z,101282.16
2017-07-23T10:10:52.343Z,101282.20
2017-07-23T10:13:19.266Z,101288.89
2017-07-23T10:15:45.438Z,101286.58
2017-07-23T10:18:11.622Z,101284.31
2017-07-23T10:20:37.807Z,101286.78
2017-07-23T10:23:04.025Z,101288.08
2017-07-23T10:25:30.971Z,101289.69
2017-07-23T10:27:57.898Z,101282.09
2017-07-23T10:30:24.095Z,101278.97
2017-07-23T10:32:50.262Z,101279.28
2017-07-23T10:35:16.431Z,101278.86
2017-07-23T10:37:43.369Z,101278.34
2017-07-23T10:40:09.552Z,101282.17
2017-07-23T10:42:35.728Z,101284.86
2017-07-23T10:45:02.649Z,101285.94
2017-07-23T10:47:28.811Z,101275.21
2017-07-23T10:49:55.758Z,101288.50
2017-07-23T10:52:22.690Z,101278.82
2017-07-23T10:54:48.863Z,101289.55
2017-07-23T10:57:15.043Z,101288.45
2017-07-23T10:59:41.218Z,101283.75
2017-07-23T11:02:08.176Z,101279.38
2017-07-23T11:04:35.107Z,101284.06
2017-07-23T11:07:02.059Z,101283.09
2017-07-23T11:09:28.986Z,101275.87
2017-07-23T11:11:55.160Z,101283.79
2017-07-23T11:14:21.351Z,101294.52
2017-07-23T11:16:47.540Z,101294.95
2017-07-23T11:19:13.721Z,101292.69
2017-07-23T11:21:40.647Z,101284.37
2017-07-23T11:24:07.815Z,101291.75
2017-07-23T11:26:33.995Z,101287.67
2017-07-23T11:29:00.925Z,101289.94
2017-07-23T11:31:27.115Z,101295.48
2017-07-23T11:34:04.569Z,101299.78
2017-07-23T11:36:32.504Z,101299.03
2017-07-23T11:39:11.131Z,101303.34
2017-07-23T11:41:38.027Z,101298.49
2017-07-23T11:44:04.219Z,101307.63
2017-07-23T11:46:31.172Z,101297.22
2017-07-23T11:48:58.235Z,101301.04
2017-07-23T11:51:25.192Z,101284.05
2017-07-23T11:53:52.203Z,101282.91
2017-07-23T11:56:18.457Z,101292.64
2017-07-23T11:58:45.384Z,101283.03
2017-07-23T12:01:11.805Z,101288.86
2017-07-23T12:03:38.250Z,101293.52
2017-07-23T12:06:04.444Z,101294.16
2017-07-23T12:08:30.635Z,101290.53
2017-07-23T12:10:56.818Z,101287.35
2017-07-23T12:13:22.996Z,101295.70
2017-07-23T12:15:49.279Z,101293.66
2017-07-23T12:18:15.961Z,101295.24
2017-07-23T12:20:42.512Z,101306.58
2017-07-23T12:23:09.076Z,101335.33
2017-07-23T12:25:35.567Z,101341.70
2017-07-23T12:28:01.919Z,101342.13
2017-07-23T12:30:28.118Z,101346.80
2017-07-23T12:32:54.301Z,101353.59
2017-07-23T12:35:20.463Z,101342.81
2017-07-23T12:37:47.402Z,101349.03
2017-07-23T12:40:14.124Z,101353.67
2017-07-23T12:42:42.626Z,101345.52
2017-07-23T12:45:08.879Z,101350.48
2017-07-23T12:47:35.808Z,101350.20
2017-07-23T12:50:01.999Z,101354.48
2017-07-23T12:52:28.171Z,101355.02
2017-07-23T12:54:54.340Z,101355.08
2017-07-23T12:57:21.279Z,101355.50
2017-07-23T12:59:49.544Z,101353.30
2017-07-23T13:02:15.743Z,101354.98
2017-07-23T13:04:41.920Z,101340.25
2017-07-23T13:07:08.850Z,101339.30
2017-07-23T13:09:35.645Z,101336.36
2017-07-23T13:12:02.056Z,101341.75
2017-07-23T13:14:29.029Z,101351.47
2017-07-23T13:16:55.274Z,101346.77
2017-07-23T13:19:21.447Z,101341.61
2017-07-23T13:21:47.642Z,101342.03
2017-07-23T13:24:13.815Z,101338.91
2017-07-23T13:26:40.155Z,101336.84
2017-07-23T13:29:06.387Z,101334.08
2017-07-23T13:31:33.357Z,101334.13
2017-07-23T13:34:00.281Z,101343.97
2017-07-23T13:36:26.774Z,101339.17
2017-07-23T13:38:52.980Z,101347.31
2017-07-23T13:41:19.191Z,101346.81
2017-07-23T13:43:45.363Z,101340.39
2017-07-23T13:46:12.280Z,101334.58
2017-07-23T13:48:39.228Z,101339.41
2017-07-23T13:51:05.451Z,101334.99
2017-07-23T13:53:31.736Z,101332.33
2017-07-23T13:55:58.340Z,101335.72
2017-07-23T13:58:24.612Z,101331.39
2017-07-23T14:00:50.820Z,101321.95
2017-07-23T14:03:17.020Z,101319.85
2017-07-23T14:05:43.203Z,101320.16
2017-07-23T14:08:10.286Z,101322.22
2017-07-23T14:10:36.608Z,101322.27
2017-07-23T14:13:02.956Z,101315.16
2017-07-23T14:15:29.146Z,101321.26
2017-07-23T14:17:56.782Z,101317.63
2017-07-23T14:20:22.976Z,101318.13
2017-07-23T14:22:49.975Z,101322.95
2017-07-23T14:25:16.245Z,101314.95
2017-07-23T14:27:42.656Z,101321.85
2017-07-23T14:30:08.978Z,101317.51
2017-07-23T14:32:35.770Z,101312.47
2017-07-23T14:35:02.077Z,101312.52
2017-07-23T14:37:28.262Z,101310.21
2017-07-23T14:39:54.472Z,101312.17
2017-07-23T14:42:21.399Z,101321.27
2017-07-23T14:44:48.460Z,101310.38
2017-07-23T14:47:15.396Z,101306.77
2017-07-23T14:49:41.581Z,101308.98
2017-07-23T14:52:07.791Z,101298.75
2017-07-23T14:54:34.716Z,101296.92
2017-07-23T14:57:00.907Z,101305.48
2017-07-23T14:59:27.074Z,101298.78
2017-07-23T15:01:53.247Z,101304.87
2017-07-23T15:04:19.452Z,101305.31
2017-07-23T15:06:45.630Z,101301.59
2017-07-23T15:09:11.816Z,101309.36
2017-07-23T15:11:38.746Z,101307.64
2017-07-23T15:14:05.438Z,101310.92
2017-07-23T15:16:31.663Z,101302.77
2017-07-23T15:18:57.863Z,101302.13
2017-07-23T15:21:24.164Z,101310.45
2017-07-23T15:23:50.344Z,101300.95
2017-07-23T15:26:16.523Z,101313.00
2017-07-23T15:28:42.727Z,101320.31
2017-07-23T15:31:09.675Z,101318.48
2017-07-23T15:33:36.611Z,101319.93
2017-07-23T15:36:02.795Z,101315.13
2017-07-23T15:38:28.981Z,101310.86
2017-07-23T15:40:55.216Z,101300.77
2017-07-23T15:43:22.138Z,101289.70
2017-07-23T15:45:48.306Z,101281.63
2017-07-23T15:48:15.216Z,101282.92
2017-07-23T15:50:41.385Z,101297.98
2017-07-23T15:53:08.317Z,101293.94
2017-07-23T15:55:34.506Z,101296.74
2017-07-23T15:58:00.686Z,101287.05
2017-07-23T16:00:26.859Z,101281.89
2017-07-23T16:02:53.038Z,101285.86
2017-07-23T16:05:19.218Z,101290.32
2017-07-23T16:07:45.459Z,101288.70
2017-07-23T16:10:11.631Z,101285.03
2017-07-23T16:12:37.832Z,101284.52
2017-07-23T16:15:04.039Z,101285.63
2017-07-23T16:17:30.968Z,101277.37
2017-07-23T16:19:57.895Z,101284.05
2017-07-23T16:22:24.102Z,101281.35
2017-07-23T16:24:50.319Z,101277.08
2017-07-23T16:27:16.501Z,101268.88
2017-07-23T16:29:42.683Z,101271.26
2017-07-23T16:32:08.879Z,101268.45
2017-07-23T16:34:35.075Z,101265.32
2017-07-23T16:37:01.267Z,101266.50
2017-07-23T16:39:28.215Z,101269.34
2017-07-23T16:41:55.204Z,101274.20
2017-07-23T16:44:21.379Z,101271.76
2017-07-23T16:46:47.578Z,101271.13
2017-07-23T16:49:13.742Z,101277.65
2017-07-23T16:51:39.918Z,101280.55
2017-07-23T16:54:06.101Z,101274.09
2017-07-23T16:56:32.290Z,101282.84
2017-07-23T16:58:58.459Z,101286.89
2017-07-23T17:01:24.654Z,101289.58
2017-07-23T17:03:50.839Z,101286.70
2017-07-23T17:06:17.020Z,101286.23
2017-07-23T17:08:49.213Z,101290.47
2017-07-23T17:11:15.388Z,101294.09
2017-07-23T17:13:42.309Z,101286.79
2017-07-23T17:16:08.533Z,101289.98
2017-07-23T17:18:34.730Z,101279.86
2017-07-23T17:21:00.924Z,101279.76
2017-07-23T17:23:27.091Z,101279.52
2017-07-23T17:25:54.203Z,101280.91
2017-07-23T17:28:20.426Z,101286.41
2017-07-23T17:30:46.595Z,101283.09
2017-07-23T17:33:13.556Z,101277.69
2017-07-23T17:35:40.480Z,101286.97
2017-07-23T17:38:07.423Z,101283.38
2017-07-23T17:40:33.636Z,101278.95
2017-07-23T17:42:59.829Z,101280.12
2017-07-23T17:45:26.803Z,101283.41
2017-07-23T17:47:52.991Z,101279.28
2017-07-23T17:50:19.919Z,101270.02
2017-07-23T17:52:46.902Z,101268.23
2017-07-23T17:55:13.832Z,101256.59
2017-07-23T18:00:37.186Z,101250.36
2017-07-23T18:03:03.364Z,101251.16
2017-07-23T18:05:30.728Z,101252.62
2017-07-23T18:07:56.924Z,101250.19
2017-07-23T18:10:23.164Z,101250.63
2017-07-23T18:12:49.348Z,101249.91
2017-07-23T18:15:15.554Z,101244.09
2017-07-23T18:17:43.280Z,101245.76
2017-07-23T18:20:09.554Z,101249.00
2017-07-23T18:25:08.527Z,101244.58
2017-07-23T18:27:34.702Z,101254.93
2017-07-23T18:30:01.760Z,101255.47
2017-07-23T18:32:28.755Z,101256.33
2017-07-23T18:34:55.433Z,101258.81
2017-07-23T18:37:21.634Z,101262.75
2017-07-23T18:39:47.808Z,101264.80
2017-07-23T18:42:14.777Z,101274.12
2017-07-23T18:44:41.755Z,101268.68
2017-07-23T18:47:07.968Z,101270.41
2017-07-23T18:49:34.142Z,101269.21
2017-07-23T18:52:00.339Z,101277.48
2017-07-23T18:54:26.575Z,101275.09
2017-07-23T18:56:52.792Z,101273.73
2017-07-23T18:59:18.987Z,101273.39
2017-07-23T19:01:45.175Z,101272.10
2017-07-23T19:04:11.354Z,101265.13
2017-07-23T19:06:37.574Z,101274.24
2017-07-23T19:09:03.819Z,101263.25
2017-07-23T19:11:30.011Z,101262.12
2017-07-23T19:13:56.178Z,101252.69
2017-07-23T19:16:22.378Z,101245.84
2017-07-23T19:18:48.600Z,101237.28
2017-07-23T19:21:14.801Z,101236.13
2017-07-23T19:23:40.985Z,101232.22
2017-07-23T19:26:07.175Z,101237.52
2017-07-23T19:28:34.094Z,101239.22
2017-07-23T19:31:00.292Z,101239.05
2017-07-23T19:33:26.823Z,101288.77
2017-07-23T19:35:53.048Z,101268.33
2017-07-23T19:38:19.975Z,101265.74
2017-07-23T19:40:46.163Z,101263.55
2017-07-23T19:43:12.375Z,101264.05
2017-07-23T19:45:38.555Z,101276.36
2017-07-23T19:48:04.750Z,101278.88
2017-07-23T19:50:30.947Z,101278.33
2017-07-23T19:52:57.913Z,101282.86
2017-07-23T19:55:24.858Z,101288.95
2017-07-23T19:57:51.841Z,101305.11
2017-07-23T20:00:18.048Z,101282.59
2017-07-23T20:02:44.979Z,101283.36
2017-07-23T20:05:11.898Z,101271.51
2017-07-23T20:07:38.140Z,101276.41
2017-07-23T20:10:04.327Z,101274.73
2017-07-23T20:12:30.541Z,101274.56
2017-07-23T20:14:57.648Z,101276.95
2017-07-23T20:17:24.701Z,101265.69
2017-07-23T20:19:50.934Z,101268.11
2017-07-23T20:22:17.110Z,101278.89
2017-07-23T20:24:44.027Z,101284.65
2017-07-23T20:27:10.210Z,101274.63
2017-07-23T20:29:36.684Z,101266.66
2017-07-23T20:32:02.919Z,101272.74
2017-07-23T20:34:29.101Z,101267.30
2017-07-23T20:36:56.032Z,101265.58
2017-07-23T20:39:22.214Z,101259.98
2017-07-23T20:41:48.392Z,101264.23
2017-07-23T20:44:14.595Z,101269.84
2017-07-23T20:46:40.776Z,101264.83
2017-07-23T20:49:07.705Z,101270.86
2017-07-23T20:51:33.878Z,101271.40
2017-07-23T20:54:00.075Z,101262.03
2017-07-23T20:56:27.543Z,101266.60
2017-07-23T20:58:53.710Z,101268.00
2017-07-23T21:01:19.895Z,101263.53
2017-07-23T21:03:46.107Z,101261.97
2017-07-23T21:06:12.279Z,101264.98
2017-07-23T21:08:38.466Z,101261.86
2017-07-23T21:11:04.637Z,101253.46
2017-07-23T21:13:30.823Z,101254.27
2017-07-23T21:15:57.008Z,101257.06
2017-07-23T21:18:23.219Z,101255.34
2017-07-23T21:20:49.395Z,101252.11
2017-07-23T21:23:16.519Z,101246.63
2017-07-23T21:25:42.720Z,101246.14
2017-07-23T21:28:08.888Z,101244.63
2017-07-23T21:30:35.062Z,101253.63
2017-07-23T21:33:01.228Z,101240.70
2017-07-23T21:35:27.419Z,101238.44
2017-07-23T21:37:53.598Z,101243.71
2017-07-23T21:40:19.754Z,101233.55
2017-07-23T21:42:45.928Z,101232.75
2017-07-23T21:45:12.283Z,101233.61
2017-07-23T21:47:38.463Z,101231.27
2017-07-23T21:50:04.662Z,101229.02
2017-07-23T21:52:30.839Z,101223.37
2017-07-23T21:54:57.747Z,101221.84
2017-07-23T21:57:23.942Z,101231.98
2017-07-23T21:59:50.119Z,101225.41
2017-07-23T22:02:16.326Z,101227.73
2017-07-23T22:04:42.507Z,101218.55
2017-07-23T22:07:09.431Z,101225.16
2017-07-23T22:09:35.610Z,101216.03
2017-07-23T22:12:02.550Z,101216.90
2017-07-23T22:14:28.727Z,101223.95
2017-07-23T22:16:54.898Z,101216.30
2017-07-23T22:19:21.084Z,101216.25
2017-07-23T22:21:47.267Z,101207.15
2017-07-23T22:24:13.434Z,101214.31
2017-07-23T22:26:39.614Z,101205.80
2017-07-23T22:29:05.777Z,101212.00
2017-07-23T22:31:32.698Z,101212.42
2017-07-23T22:33:58.874Z,101213.34
2017-07-23T22:36:25.035Z,101207.96
2017-07-23T22:38:51.233Z,101210.59
2017-07-23T22:41:18.154Z,101204.78
2017-07-23T22:43:44.324Z,101210.48
2017-07-23T22:46:10.486Z,101210.59
2017-07-23T22:48:36.647Z,101209.68
2017-07-23T22:51:02.857Z,101204.30
2017-07-23T22:53:29.043Z,101196.27
2017-07-23T22:55:55.955Z,101193.58
2017-07-23T22:58:22.138Z,101184.16
2017-07-23T23:00:48.322Z,101183.73
2017-07-23T23:03:14.512Z,101180.12
2017-07-23T23:05:40.696Z,101175.16
2017-07-23T23:08:06.863Z,101172.04
2017-07-23T23:10:33.029Z,101163.59
2017-07-23T23:12:59.293Z,101166.71
2017-07-23T23:15:25.477Z,101161.75
2017-07-23T23:17:51.647Z,101162.67
2017-07-23T23:20:17.808Z,101154.11
2017-07-23T23:22:44.735Z,101150.93
2017-07-23T23:25:10.909Z,101150.07
2017-07-23T23:27:37.825Z,101148.30
2017-07-23T23:30:03.987Z,101146.03
2017-07-23T23:32:30.902Z,101135.31
2017-07-23T23:34:57.076Z,101140.27
2017-07-23T23:37:23.271Z,101139.36
2017-07-23T23:39:49.453Z,101126.81
2017-07-23T23:42:15.616Z,101129.98
2017-07-23T23:44:41.807Z,101125.95
2017-07-23T23:47:08.711Z,101127.78
2017-07-23T23:49:34.878Z,101124.71
2017-07-23T23:52:01.828Z,101113.89
2017-07-23T23:54:28.730Z,101119.70
2017-07-23T23:56:55.020Z,101110.82
2017-07-23T23:59:21.932Z,101114.38
